sensor_id;sensor_type;location;lat;lon;timestamp;P1;durP1;ratioP1;P2;durP2;ratioP2
16854;SDS011;8543;54.522;18.550;2023-12-20T00:01:17;3.80;;;1.70;;
16854;SDS011;8543;54.522;18.550;2023-12-20T00:03:42;2.90;;;1.40;;
16854;SDS011;8543;54.522;18.550;2023-12-20T00:06:08;2.50;;;1.40;;
16854;SDS011;8543;54.522;18.550;2023-12-20T00:08:34;2.30;;;1.50;;
16854;SDS011;8543;54.522;18.550;2023-12-20T00:10:59;3.20;;;1.40;;
16854;SDS011;8543;54.522;18.550;2023-12-20T00:13:24;3.20;;;1.50;;
16854;SDS011;8543;54.522;18.550;2023-12-20T00:15:50;3.70;;;1.60;;
16854;SDS011;8543;54.522;18.550;2023-12-20T00:18:15;3.20;;;1.60;;
16854;SDS011;8543;54.522;18.550;2023-12-20T00:20:40;5.70;;;1.70;;
16854;SDS011;8543;54.522;18.550;2023-12-20T00:23:06;4.20;;;1.80;;
16854;SDS011;8543;54.522;18.550;2023-12-20T00:25:33;2.40;;;1.80;;
16854;SDS011;8543;54.522;18.550;2023-12-20T00:27:58;2.20;;;1.50;;
16854;SDS011;8543;54.522;18.550;2023-12-20T00:30:24;2.00;;;1.40;;
16854;SDS011;8543;54.522;18.550;2023-12-20T00:32:49;4.00;;;1.80;;
16854;SDS011;8543;54.522;18.550;2023-12-20T00:35:15;3.40;;;1.80;;
16854;SDS011;8543;54.522;18.550;2023-12-20T00:37:45;5.20;;;2.00;;
16854;SDS011;8543;54.522;18.550;2023-12-20T00:40:10;3.30;;;1.70;;
16854;SDS011;8543;54.522;18.550;2023-12-20T00:42:36;1.50;;;1.40;;
16854;SDS011;8543;54.522;18.550;2023-12-20T00:45:02;3.50;;;1.60;;
16854;SDS011;8543;54.522;18.550;2023-12-20T00:47:29;1.50;;;1.40;;
16854;SDS011;8543;54.522;18.550;2023-12-20T00:49:55;2.10;;;1.30;;
16854;SDS011;8543;54.522;18.550;2023-12-20T00:52:20;2.60;;;1.30;;
16854;SDS011;8543;54.522;18.550;2023-12-20T00:54:47;2.40;;;1.20;;
16854;SDS011;8543;54.522;18.550;2023-12-20T00:57:13;2.60;;;1.20;;
16854;SDS011;8543;54.522;18.550;2023-12-20T00:59:38;2.10;;;1.20;;
16854;SDS011;8543;54.522;18.550;2023-12-20T01:02:04;2.10;;;1.30;;
16854;SDS011;8543;54.522;18.550;2023-12-20T01:04:29;1.70;;;1.10;;
16854;SDS011;8543;54.522;18.550;2023-12-20T01:06:55;3.50;;;1.30;;
16854;SDS011;8543;54.522;18.550;2023-12-20T01:09:20;1.30;;;1.20;;
16854;SDS011;8543;54.522;18.550;2023-12-20T01:11:48;2.20;;;1.40;;
16854;SDS011;8543;54.522;18.550;2023-12-20T01:14:14;6.00;;;1.50;;
16854;SDS011;8543;54.522;18.550;2023-12-20T01:16:39;6.30;;;1.70;;
16854;SDS011;8543;54.522;18.550;2023-12-20T01:19:05;5.20;;;1.50;;
16854;SDS011;8543;54.522;18.550;2023-12-20T01:21:30;3.60;;;1.30;;
16854;SDS011;8543;54.522;18.550;2023-12-20T01:23:55;3.00;;;1.30;;
16854;SDS011;8543;54.522;18.550;2023-12-20T01:26:21;3.50;;;1.40;;
16854;SDS011;8543;54.522;18.550;2023-12-20T01:28:46;2.30;;;1.40;;
16854;SDS011;8543;54.522;18.550;2023-12-20T01:31:12;3.70;;;1.50;;
16854;SDS011;8543;54.522;18.550;2023-12-20T01:33:37;5.10;;;1.50;;
16854;SDS011;8543;54.522;18.550;2023-12-20T01:36:03;4.70;;;1.50;;
16854;SDS011;8543;54.522;18.550;2023-12-20T01:38:29;6.00;;;1.60;;
16854;SDS011;8543;54.522;18.550;2023-12-20T01:40:54;4.10;;;1.30;;
16854;SDS011;8543;54.522;18.550;2023-12-20T01:43:20;5.30;;;1.60;;
16854;SDS011;8543;54.522;18.550;2023-12-20T01:45:46;3.40;;;1.40;;
16854;SDS011;8543;54.522;18.550;2023-12-20T01:48:12;8.30;;;1.70;;
16854;SDS011;8543;54.522;18.550;2023-12-20T01:50:37;5.40;;;1.70;;
16854;SDS011;8543;54.522;18.550;2023-12-20T01:53:03;4.30;;;1.70;;
16854;SDS011;8543;54.522;18.550;2023-12-20T01:55:29;5.10;;;1.60;;
16854;SDS011;8543;54.522;18.550;2023-12-20T01:57:57;8.20;;;2.00;;
16854;SDS011;8543;54.522;18.550;2023-12-20T02:00:23;7.50;;;1.70;;
16854;SDS011;8543;54.522;18.550;2023-12-20T02:02:51;4.30;;;1.60;;
16854;SDS011;8543;54.522;18.550;2023-12-20T02:05:18;4.60;;;1.50;;
16854;SDS011;8543;54.522;18.550;2023-12-20T02:07:43;6.40;;;1.50;;
16854;SDS011;8543;54.522;18.550;2023-12-20T02:10:09;6.70;;;2.30;;
16854;SDS011;8543;54.522;18.550;2023-12-20T02:12:34;4.90;;;1.60;;
16854;SDS011;8543;54.522;18.550;2023-12-20T02:15:00;4.50;;;1.60;;
16854;SDS011;8543;54.522;18.550;2023-12-20T02:17:26;8.00;;;2.30;;
16854;SDS011;8543;54.522;18.550;2023-12-20T02:19:52;3.20;;;1.50;;
16854;SDS011;8543;54.522;18.550;2023-12-20T02:22:18;7.70;;;2.10;;
16854;SDS011;8543;54.522;18.550;2023-12-20T02:24:43;4.70;;;1.80;;
16854;SDS011;8543;54.522;18.550;2023-12-20T02:27:09;6.50;;;1.70;;
16854;SDS011;8543;54.522;18.550;2023-12-20T02:29:34;4.00;;;1.50;;
16854;SDS011;8543;54.522;18.550;2023-12-20T02:32:00;5.20;;;1.90;;
16854;SDS011;8543;54.522;18.550;2023-12-20T02:34:26;5.10;;;1.50;;
16854;SDS011;8543;54.522;18.550;2023-12-20T02:36:51;6.00;;;1.70;;
16854;SDS011;8543;54.522;18.550;2023-12-20T02:39:17;7.20;;;2.10;;
16854;SDS011;8543;54.522;18.550;2023-12-20T02:41:43;7.20;;;1.80;;
16854;SDS011;8543;54.522;18.550;2023-12-20T02:44:09;5.20;;;1.90;;
16854;SDS011;8543;54.522;18.550;2023-12-20T02:46:34;7.60;;;1.90;;
16854;SDS011;8543;54.522;18.550;2023-12-20T02:49:00;6.40;;;2.00;;
16854;SDS011;8543;54.522;18.550;2023-12-20T02:51:25;4.30;;;1.70;;
16854;SDS011;8543;54.522;18.550;2023-12-20T02:53:51;7.10;;;2.00;;
16854;SDS011;8543;54.522;18.550;2023-12-20T02:56:16;4.70;;;1.90;;
16854;SDS011;8543;54.522;18.550;2023-12-20T02:58:41;6.40;;;1.90;;
16854;SDS011;8543;54.522;18.550;2023-12-20T03:01:07;4.60;;;1.90;;
16854;SDS011;8543;54.522;18.550;2023-12-20T03:03:32;5.50;;;1.70;;
16854;SDS011;8543;54.522;18.550;2023-12-20T03:05:58;3.90;;;1.50;;
16854;SDS011;8543;54.522;18.550;2023-12-20T03:08:23;7.40;;;2.10;;
16854;SDS011;8543;54.522;18.550;2023-12-20T03:10:49;5.80;;;1.70;;
16854;SDS011;8543;54.522;18.550;2023-12-20T03:13:14;4.60;;;1.50;;
16854;SDS011;8543;54.522;18.550;2023-12-20T03:15:40;7.50;;;2.20;;
16854;SDS011;8543;54.522;18.550;2023-12-20T03:18:05;9.00;;;1.80;;
16854;SDS011;8543;54.522;18.550;2023-12-20T03:20:31;5.60;;;1.80;;
16854;SDS011;8543;54.522;18.550;2023-12-20T03:23:02;4.80;;;1.60;;
16854;SDS011;8543;54.522;18.550;2023-12-20T03:25:28;3.80;;;1.50;;
16854;SDS011;8543;54.522;18.550;2023-12-20T03:27:53;7.30;;;1.90;;
16854;SDS011;8543;54.522;18.550;2023-12-20T03:30:19;6.80;;;1.80;;
16854;SDS011;8543;54.522;18.550;2023-12-20T03:32:44;6.40;;;1.80;;
16854;SDS011;8543;54.522;18.550;2023-12-20T03:35:10;5.90;;;1.70;;
16854;SDS011;8543;54.522;18.550;2023-12-20T03:37:36;8.50;;;2.00;;
16854;SDS011;8543;54.522;18.550;2023-12-20T03:40:02;6.60;;;1.90;;
16854;SDS011;8543;54.522;18.550;2023-12-20T03:42:28;5.60;;;1.60;;
16854;SDS011;8543;54.522;18.550;2023-12-20T03:44:53;9.00;;;1.80;;
16854;SDS011;8543;54.522;18.550;2023-12-20T03:47:18;8.70;;;1.90;;
16854;SDS011;8543;54.522;18.550;2023-12-20T03:49:44;6.40;;;2.00;;
16854;SDS011;8543;54.522;18.550;2023-12-20T03:52:09;6.60;;;2.00;;
16854;SDS011;8543;54.522;18.550;2023-12-20T03:54:35;6.80;;;1.90;;
16854;SDS011;8543;54.522;18.550;2023-12-20T03:57:00;4.60;;;1.90;;
16854;SDS011;8543;54.522;18.550;2023-12-20T03:59:26;4.70;;;1.50;;
16854;SDS011;8543;54.522;18.550;2023-12-20T04:01:51;6.60;;;1.90;;
16854;SDS011;8543;54.522;18.550;2023-12-20T04:04:16;6.20;;;1.60;;
16854;SDS011;8543;54.522;18.550;2023-12-20T04:06:42;7.70;;;1.90;;
16854;SDS011;8543;54.522;18.550;2023-12-20T04:09:08;6.20;;;1.80;;
16854;SDS011;8543;54.522;18.550;2023-12-20T04:11:37;6.00;;;1.80;;
16854;SDS011;8543;54.522;18.550;2023-12-20T04:14:02;8.00;;;1.90;;
16854;SDS011;8543;54.522;18.550;2023-12-20T04:16:30;5.40;;;1.80;;
16854;SDS011;8543;54.522;18.550;2023-12-20T04:18:55;3.50;;;1.60;;
16854;SDS011;8543;54.522;18.550;2023-12-20T04:21:20;7.60;;;2.30;;
16854;SDS011;8543;54.522;18.550;2023-12-20T04:23:46;5.70;;;1.70;;
16854;SDS011;8543;54.522;18.550;2023-12-20T04:26:11;7.70;;;1.80;;
16854;SDS011;8543;54.522;18.550;2023-12-20T04:28:37;3.60;;;1.70;;
16854;SDS011;8543;54.522;18.550;2023-12-20T04:31:02;4.80;;;1.60;;
16854;SDS011;8543;54.522;18.550;2023-12-20T04:33:27;4.80;;;1.60;;
16854;SDS011;8543;54.522;18.550;2023-12-20T04:35:53;4.80;;;1.80;;
16854;SDS011;8543;54.522;18.550;2023-12-20T04:38:18;5.40;;;1.70;;
16854;SDS011;8543;54.522;18.550;2023-12-20T04:40:43;5.60;;;1.80;;
16854;SDS011;8543;54.522;18.550;2023-12-20T04:43:09;4.60;;;1.70;;
16854;SDS011;8543;54.522;18.550;2023-12-20T04:45:34;4.90;;;1.60;;
16854;SDS011;8543;54.522;18.550;2023-12-20T04:48:00;9.10;;;1.90;;
16854;SDS011;8543;54.522;18.550;2023-12-20T04:50:27;6.20;;;1.70;;
16854;SDS011;8543;54.522;18.550;2023-12-20T04:52:52;3.50;;;1.40;;
16854;SDS011;8543;54.522;18.550;2023-12-20T04:55:18;6.80;;;1.80;;
16854;SDS011;8543;54.522;18.550;2023-12-20T04:57:43;3.90;;;1.70;;
16854;SDS011;8543;54.522;18.550;2023-12-20T05:00:08;5.40;;;1.60;;
16854;SDS011;8543;54.522;18.550;2023-12-20T05:02:35;4.40;;;1.90;;
16854;SDS011;8543;54.522;18.550;2023-12-20T05:05:01;7.60;;;1.80;;
16854;SDS011;8543;54.522;18.550;2023-12-20T05:07:26;5.20;;;1.70;;
16854;SDS011;8543;54.522;18.550;2023-12-20T05:09:52;6.20;;;1.90;;
16854;SDS011;8543;54.522;18.550;2023-12-20T05:12:17;3.70;;;1.60;;
16854;SDS011;8543;54.522;18.550;2023-12-20T05:14:43;7.10;;;1.70;;
16854;SDS011;8543;54.522;18.550;2023-12-20T05:17:08;6.00;;;2.20;;
16854;SDS011;8543;54.522;18.550;2023-12-20T05:19:33;6.90;;;2.20;;
16854;SDS011;8543;54.522;18.550;2023-12-20T05:22:01;8.90;;;2.10;;
16854;SDS011;8543;54.522;18.550;2023-12-20T05:24:27;5.60;;;2.00;;
16854;SDS011;8543;54.522;18.550;2023-12-20T05:26:53;6.10;;;1.70;;
16854;SDS011;8543;54.522;18.550;2023-12-20T05:29:18;8.10;;;1.90;;
16854;SDS011;8543;54.522;18.550;2023-12-20T05:31:44;10.90;;;2.10;;
16854;SDS011;8543;54.522;18.550;2023-12-20T05:34:09;6.40;;;2.20;;
16854;SDS011;8543;54.522;18.550;2023-12-20T05:36:35;6.40;;;1.70;;
16854;SDS011;8543;54.522;18.550;2023-12-20T05:39:01;4.70;;;1.70;;
16854;SDS011;8543;54.522;18.550;2023-12-20T05:41:26;5.20;;;1.80;;
16854;SDS011;8543;54.522;18.550;2023-12-20T05:43:52;5.50;;;2.20;;
16854;SDS011;8543;54.522;18.550;2023-12-20T05:46:17;5.40;;;2.10;;
16854;SDS011;8543;54.522;18.550;2023-12-20T05:48:42;8.60;;;2.10;;
16854;SDS011;8543;54.522;18.550;2023-12-20T05:51:10;5.40;;;2.30;;
16854;SDS011;8543;54.522;18.550;2023-12-20T05:53:36;6.50;;;1.70;;
16854;SDS011;8543;54.522;18.550;2023-12-20T05:56:02;5.10;;;1.70;;
16854;SDS011;8543;54.522;18.550;2023-12-20T05:58:27;4.10;;;1.70;;
16854;SDS011;8543;54.522;18.550;2023-12-20T06:00:54;6.10;;;1.70;;
16854;SDS011;8543;54.522;18.550;2023-12-20T06:03:19;7.40;;;2.10;;
16854;SDS011;8543;54.522;18.550;2023-12-20T06:05:45;7.20;;;2.00;;
16854;SDS011;8543;54.522;18.550;2023-12-20T06:08:10;5.30;;;1.80;;
16854;SDS011;8543;54.522;18.550;2023-12-20T06:10:35;6.10;;;1.70;;
16854;SDS011;8543;54.522;18.550;2023-12-20T06:13:01;4.50;;;1.70;;
16854;SDS011;8543;54.522;18.550;2023-12-20T06:15:26;7.50;;;1.90;;
16854;SDS011;8543;54.522;18.550;2023-12-20T06:17:52;7.50;;;2.00;;
16854;SDS011;8543;54.522;18.550;2023-12-20T06:20:17;6.00;;;1.90;;
16854;SDS011;8543;54.522;18.550;2023-12-20T06:22:43;5.90;;;2.00;;
16854;SDS011;8543;54.522;18.550;2023-12-20T06:25:08;7.50;;;2.20;;
16854;SDS011;8543;54.522;18.550;2023-12-20T06:27:34;8.00;;;2.20;;
16854;SDS011;8543;54.522;18.550;2023-12-20T06:29:59;5.50;;;2.10;;
16854;SDS011;8543;54.522;18.550;2023-12-20T06:32:24;7.40;;;2.60;;
16854;SDS011;8543;54.522;18.550;2023-12-20T06:34:50;8.20;;;2.40;;
16854;SDS011;8543;54.522;18.550;2023-12-20T06:37:15;9.70;;;2.40;;
16854;SDS011;8543;54.522;18.550;2023-12-20T06:39:41;6.90;;;2.10;;
16854;SDS011;8543;54.522;18.550;2023-12-20T06:42:06;8.00;;;2.30;;
16854;SDS011;8543;54.522;18.550;2023-12-20T06:44:31;6.10;;;2.10;;
16854;SDS011;8543;54.522;18.550;2023-12-20T06:46:57;5.60;;;1.90;;
16854;SDS011;8543;54.522;18.550;2023-12-20T06:49:23;9.20;;;2.20;;
16854;SDS011;8543;54.522;18.550;2023-12-20T06:51:48;7.70;;;2.40;;
16854;SDS011;8543;54.522;18.550;2023-12-20T06:54:13;7.30;;;2.20;;
16854;SDS011;8543;54.522;18.550;2023-12-20T06:56:39;8.60;;;2.10;;
16854;SDS011;8543;54.522;18.550;2023-12-20T06:59:04;5.90;;;2.50;;
16854;SDS011;8543;54.522;18.550;2023-12-20T07:01:30;7.60;;;2.10;;
16854;SDS011;8543;54.522;18.550;2023-12-20T07:03:55;8.80;;;2.40;;
16854;SDS011;8543;54.522;18.550;2023-12-20T07:06:20;8.10;;;2.20;;
16854;SDS011;8543;54.522;18.550;2023-12-20T07:08:46;7.60;;;2.40;;
16854;SDS011;8543;54.522;18.550;2023-12-20T07:11:11;5.80;;;2.50;;
16854;SDS011;8543;54.522;18.550;2023-12-20T07:13:37;6.50;;;2.00;;
16854;SDS011;8543;54.522;18.550;2023-12-20T07:16:03;8.00;;;2.70;;
16854;SDS011;8543;54.522;18.550;2023-12-20T07:18:28;7.30;;;2.20;;
16854;SDS011;8543;54.522;18.550;2023-12-20T07:20:54;10.20;;;2.40;;
16854;SDS011;8543;54.522;18.550;2023-12-20T07:23:20;7.90;;;2.40;;
16854;SDS011;8543;54.522;18.550;2023-12-20T07:25:46;6.80;;;2.00;;
16854;SDS011;8543;54.522;18.550;2023-12-20T07:28:12;6.90;;;2.10;;
16854;SDS011;8543;54.522;18.550;2023-12-20T07:30:37;6.70;;;2.30;;
16854;SDS011;8543;54.522;18.550;2023-12-20T07:33:03;5.60;;;2.40;;
16854;SDS011;8543;54.522;18.550;2023-12-20T07:35:28;7.40;;;2.20;;
16854;SDS011;8543;54.522;18.550;2023-12-20T07:37:54;9.70;;;2.70;;
16854;SDS011;8543;54.522;18.550;2023-12-20T07:40:19;6.40;;;2.70;;
16854;SDS011;8543;54.522;18.550;2023-12-20T07:42:45;7.00;;;2.60;;
16854;SDS011;8543;54.522;18.550;2023-12-20T07:45:10;4.80;;;1.80;;
16854;SDS011;8543;54.522;18.550;2023-12-20T07:47:36;9.10;;;2.10;;
16854;SDS011;8543;54.522;18.550;2023-12-20T07:50:02;8.10;;;2.30;;
16854;SDS011;8543;54.522;18.550;2023-12-20T07:52:28;6.30;;;2.30;;
16854;SDS011;8543;54.522;18.550;2023-12-20T07:54:54;7.40;;;2.10;;
16854;SDS011;8543;54.522;18.550;2023-12-20T07:57:20;6.30;;;2.20;;
16854;SDS011;8543;54.522;18.550;2023-12-20T07:59:45;5.50;;;2.20;;
16854;SDS011;8543;54.522;18.550;2023-12-20T08:02:11;8.40;;;2.40;;
16854;SDS011;8543;54.522;18.550;2023-12-20T08:04:36;6.50;;;2.50;;
16854;SDS011;8543;54.522;18.550;2023-12-20T08:07:02;6.70;;;2.20;;
16854;SDS011;8543;54.522;18.550;2023-12-20T08:09:28;7.30;;;2.80;;
16854;SDS011;8543;54.522;18.550;2023-12-20T08:11:54;6.10;;;2.20;;
16854;SDS011;8543;54.522;18.550;2023-12-20T08:14:19;7.70;;;2.60;;
16854;SDS011;8543;54.522;18.550;2023-12-20T08:16:44;8.40;;;2.90;;
16854;SDS011;8543;54.522;18.550;2023-12-20T08:19:10;8.80;;;2.40;;
16854;SDS011;8543;54.522;18.550;2023-12-20T08:21:35;6.30;;;2.20;;
16854;SDS011;8543;54.522;18.550;2023-12-20T08:24:01;6.80;;;2.60;;
16854;SDS011;8543;54.522;18.550;2023-12-20T08:26:26;5.80;;;2.00;;
16854;SDS011;8543;54.522;18.550;2023-12-20T08:28:51;7.30;;;2.10;;
16854;SDS011;8543;54.522;18.550;2023-12-20T08:31:17;6.80;;;2.50;;
16854;SDS011;8543;54.522;18.550;2023-12-20T08:33:44;5.30;;;1.90;;
16854;SDS011;8543;54.522;18.550;2023-12-20T08:36:10;5.30;;;2.40;;
16854;SDS011;8543;54.522;18.550;2023-12-20T08:38:35;6.10;;;2.40;;
16854;SDS011;8543;54.522;18.550;2023-12-20T08:41:01;7.50;;;2.10;;
16854;SDS011;8543;54.522;18.550;2023-12-20T08:43:27;5.20;;;2.60;;
16854;SDS011;8543;54.522;18.550;2023-12-20T08:45:53;11.40;;;2.90;;
16854;SDS011;8543;54.522;18.550;2023-12-20T08:48:19;6.30;;;2.60;;
16854;SDS011;8543;54.522;18.550;2023-12-20T08:50:44;8.40;;;2.70;;
16854;SDS011;8543;54.522;18.550;2023-12-20T08:53:10;9.80;;;2.60;;
16854;SDS011;8543;54.522;18.550;2023-12-20T08:55:36;5.20;;;2.30;;
16854;SDS011;8543;54.522;18.550;2023-12-20T08:58:02;6.30;;;2.60;;
16854;SDS011;8543;54.522;18.550;2023-12-20T09:00:27;7.00;;;2.40;;
16854;SDS011;8543;54.522;18.550;2023-12-20T09:02:53;7.20;;;2.80;;
16854;SDS011;8543;54.522;18.550;2023-12-20T09:05:19;7.70;;;3.20;;
16854;SDS011;8543;54.522;18.550;2023-12-20T09:07:45;6.70;;;2.40;;
16854;SDS011;8543;54.522;18.550;2023-12-20T09:10:10;7.20;;;2.60;;
16854;SDS011;8543;54.522;18.550;2023-12-20T09:12:35;6.30;;;2.20;;
16854;SDS011;8543;54.522;18.550;2023-12-20T09:15:04;7.60;;;2.20;;
16854;SDS011;8543;54.522;18.550;2023-12-20T09:17:30;7.60;;;2.80;;
16854;SDS011;8543;54.522;18.550;2023-12-20T09:19:56;7.10;;;2.40;;
16854;SDS011;8543;54.522;18.550;2023-12-20T09:22:21;6.70;;;2.30;;
16854;SDS011;8543;54.522;18.550;2023-12-20T09:24:46;5.40;;;2.40;;
16854;SDS011;8543;54.522;18.550;2023-12-20T09:27:12;7.90;;;2.50;;
16854;SDS011;8543;54.522;18.550;2023-12-20T09:29:37;6.00;;;2.90;;
16854;SDS011;8543;54.522;18.550;2023-12-20T09:32:03;8.10;;;2.20;;
16854;SDS011;8543;54.522;18.550;2023-12-20T09:34:28;8.70;;;2.80;;
16854;SDS011;8543;54.522;18.550;2023-12-20T09:36:54;7.10;;;2.60;;
16854;SDS011;8543;54.522;18.550;2023-12-20T09:39:20;7.90;;;3.20;;
16854;SDS011;8543;54.522;18.550;2023-12-20T09:42:07;4.30;;;2.10;;
16854;SDS011;8543;54.522;18.550;2023-12-20T09:47:04;5.40;;;2.10;;
16854;SDS011;8543;54.522;18.550;2023-12-20T09:49:30;6.60;;;2.30;;
16854;SDS011;8543;54.522;18.550;2023-12-20T09:51:56;5.00;;;2.20;;
16854;SDS011;8543;54.522;18.550;2023-12-20T09:54:22;5.80;;;2.20;;
16854;SDS011;8543;54.522;18.550;2023-12-20T09:56:48;6.30;;;2.40;;
16854;SDS011;8543;54.522;18.550;2023-12-20T09:59:13;7.10;;;2.20;;
16854;SDS011;8543;54.522;18.550;2023-12-20T10:01:40;6.40;;;2.60;;
16854;SDS011;8543;54.522;18.550;2023-12-20T10:04:06;5.90;;;2.50;;
16854;SDS011;8543;54.522;18.550;2023-12-20T10:06:34;6.00;;;2.10;;
16854;SDS011;8543;54.522;18.550;2023-12-20T10:09:02;7.00;;;2.50;;
16854;SDS011;8543;54.522;18.550;2023-12-20T10:11:29;6.40;;;2.40;;
16854;SDS011;8543;54.522;18.550;2023-12-20T10:13:58;6.50;;;2.40;;
16854;SDS011;8543;54.522;18.550;2023-12-20T10:16:26;6.40;;;2.40;;
16854;SDS011;8543;54.522;18.550;2023-12-20T10:18:53;5.10;;;2.40;;
16854;SDS011;8543;54.522;18.550;2023-12-20T10:21:24;9.60;;;2.60;;
16854;SDS011;8543;54.522;18.550;2023-12-20T10:23:51;6.50;;;2.40;;
16854;SDS011;8543;54.522;18.550;2023-12-20T10:26:26;6.30;;;2.50;;
16854;SDS011;8543;54.522;18.550;2023-12-20T10:28:55;6.50;;;2.50;;
16854;SDS011;8543;54.522;18.550;2023-12-20T10:31:29;5.00;;;2.20;;
16854;SDS011;8543;54.522;18.550;2023-12-20T10:33:56;7.50;;;2.60;;
16854;SDS011;8543;54.522;18.550;2023-12-20T10:36:23;4.70;;;2.10;;
16854;SDS011;8543;54.522;18.550;2023-12-20T10:38:51;9.50;;;3.10;;
16854;SDS011;8543;54.522;18.550;2023-12-20T10:41:19;5.70;;;2.20;;
16854;SDS011;8543;54.522;18.550;2023-12-20T10:43:58;4.80;;;2.50;;
16854;SDS011;8543;54.522;18.550;2023-12-20T10:46:24;7.10;;;2.80;;
16854;SDS011;8543;54.522;18.550;2023-12-20T10:48:53;7.50;;;2.80;;
16854;SDS011;8543;54.522;18.550;2023-12-20T10:51:19;6.30;;;2.80;;
16854;SDS011;8543;54.522;18.550;2023-12-20T10:53:46;6.00;;;2.40;;
16854;SDS011;8543;54.522;18.550;2023-12-20T10:56:12;6.40;;;2.40;;
16854;SDS011;8543;54.522;18.550;2023-12-20T10:58:42;6.40;;;2.70;;
16854;SDS011;8543;54.522;18.550;2023-12-20T11:01:12;7.10;;;3.00;;
16854;SDS011;8543;54.522;18.550;2023-12-20T11:03:39;9.90;;;3.00;;
16854;SDS011;8543;54.522;18.550;2023-12-20T11:09:26;5.20;;;2.40;;
16854;SDS011;8543;54.522;18.550;2023-12-20T11:12:10;8.10;;;3.20;;
16854;SDS011;8543;54.522;18.550;2023-12-20T11:14:46;7.10;;;3.00;;
16854;SDS011;8543;54.522;18.550;2023-12-20T11:17:13;5.60;;;2.90;;
16854;SDS011;8543;54.522;18.550;2023-12-20T11:22:32;12.00;;;3.80;;
16854;SDS011;8543;54.522;18.550;2023-12-20T11:25:05;5.70;;;2.40;;
16854;SDS011;8543;54.522;18.550;2023-12-20T11:27:33;8.30;;;3.70;;
16854;SDS011;8543;54.522;18.550;2023-12-20T11:29:58;6.00;;;3.20;;
16854;SDS011;8543;54.522;18.550;2023-12-20T11:34:55;5.80;;;3.20;;
16854;SDS011;8543;54.522;18.550;2023-12-20T11:37:21;7.20;;;3.40;;
16854;SDS011;8543;54.522;18.550;2023-12-20T11:39:54;8.00;;;3.30;;
16854;SDS011;8543;54.522;18.550;2023-12-20T11:42:21;7.90;;;3.70;;
16854;SDS011;8543;54.522;18.550;2023-12-20T11:44:47;9.70;;;3.80;;
16854;SDS011;8543;54.522;18.550;2023-12-20T11:47:12;8.70;;;3.20;;
16854;SDS011;8543;54.522;18.550;2023-12-20T11:49:38;4.70;;;2.90;;
16854;SDS011;8543;54.522;18.550;2023-12-20T11:52:04;6.00;;;2.90;;
16854;SDS011;8543;54.522;18.550;2023-12-20T11:54:30;4.80;;;2.60;;
16854;SDS011;8543;54.522;18.550;2023-12-20T11:56:55;9.30;;;2.70;;
16854;SDS011;8543;54.522;18.550;2023-12-20T11:59:21;5.20;;;2.50;;
16854;SDS011;8543;54.522;18.550;2023-12-20T12:01:49;4.10;;;2.40;;
16854;SDS011;8543;54.522;18.550;2023-12-20T12:04:16;5.50;;;3.10;;
16854;SDS011;8543;54.522;18.550;2023-12-20T12:06:43;5.40;;;2.90;;
16854;SDS011;8543;54.522;18.550;2023-12-20T12:09:09;4.80;;;2.90;;
16854;SDS011;8543;54.522;18.550;2023-12-20T12:11:35;5.70;;;2.90;;
16854;SDS011;8543;54.522;18.550;2023-12-20T12:14:00;5.70;;;2.80;;
16854;SDS011;8543;54.522;18.550;2023-12-20T12:16:26;6.90;;;2.90;;
16854;SDS011;8543;54.522;18.550;2023-12-20T12:18:57;5.10;;;2.50;;
16854;SDS011;8543;54.522;18.550;2023-12-20T12:21:23;4.60;;;2.10;;
16854;SDS011;8543;54.522;18.550;2023-12-20T12:23:49;4.00;;;2.20;;
16854;SDS011;8543;54.522;18.550;2023-12-20T12:26:15;4.50;;;2.40;;
16854;SDS011;8543;54.522;18.550;2023-12-20T12:28:40;5.80;;;2.60;;
16854;SDS011;8543;54.522;18.550;2023-12-20T12:31:07;5.90;;;2.90;;
16854;SDS011;8543;54.522;18.550;2023-12-20T12:33:32;5.40;;;2.80;;
16854;SDS011;8543;54.522;18.550;2023-12-20T12:35:58;4.80;;;2.40;;
16854;SDS011;8543;54.522;18.550;2023-12-20T12:38:24;5.80;;;2.40;;
16854;SDS011;8543;54.522;18.550;2023-12-20T12:40:50;4.90;;;2.30;;
16854;SDS011;8543;54.522;18.550;2023-12-20T12:43:15;7.00;;;2.60;;
16854;SDS011;8543;54.522;18.550;2023-12-20T12:45:41;4.40;;;2.50;;
16854;SDS011;8543;54.522;18.550;2023-12-20T12:48:06;4.40;;;2.20;;
16854;SDS011;8543;54.522;18.550;2023-12-20T12:50:32;4.30;;;2.10;;
16854;SDS011;8543;54.522;18.550;2023-12-20T12:52:57;4.20;;;2.30;;
16854;SDS011;8543;54.522;18.550;2023-12-20T12:55:23;5.20;;;2.60;;
16854;SDS011;8543;54.522;18.550;2023-12-20T12:57:48;3.80;;;2.40;;
16854;SDS011;8543;54.522;18.550;2023-12-20T13:00:13;4.10;;;2.40;;
16854;SDS011;8543;54.522;18.550;2023-12-20T13:02:39;4.50;;;2.90;;
16854;SDS011;8543;54.522;18.550;2023-12-20T13:05:07;6.30;;;2.70;;
16854;SDS011;8543;54.522;18.550;2023-12-20T13:07:33;4.40;;;3.00;;
16854;SDS011;8543;54.522;18.550;2023-12-20T13:09:59;4.70;;;2.50;;
16854;SDS011;8543;54.522;18.550;2023-12-20T13:12:25;4.60;;;2.30;;
16854;SDS011;8543;54.522;18.550;2023-12-20T13:14:51;5.80;;;2.30;;
16854;SDS011;8543;54.522;18.550;2023-12-20T13:17:16;3.30;;;1.80;;
16854;SDS011;8543;54.522;18.550;2023-12-20T13:19:42;4.70;;;1.90;;
16854;SDS011;8543;54.522;18.550;2023-12-20T13:22:07;4.50;;;2.40;;
16854;SDS011;8543;54.522;18.550;2023-12-20T13:24:33;5.00;;;2.50;;
16854;SDS011;8543;54.522;18.550;2023-12-20T13:26:58;3.80;;;2.30;;
16854;SDS011;8543;54.522;18.550;2023-12-20T13:29:24;4.10;;;2.30;;
16854;SDS011;8543;54.522;18.550;2023-12-20T13:31:52;4.30;;;2.20;;
16854;SDS011;8543;54.522;18.550;2023-12-20T13:34:18;3.40;;;2.20;;
16854;SDS011;8543;54.522;18.550;2023-12-20T13:36:44;4.00;;;2.30;;
16854;SDS011;8543;54.522;18.550;2023-12-20T13:39:13;4.70;;;2.10;;
16854;SDS011;8543;54.522;18.550;2023-12-20T13:41:38;3.50;;;2.10;;
16854;SDS011;8543;54.522;18.550;2023-12-20T13:44:04;4.40;;;2.10;;
16854;SDS011;8543;54.522;18.550;2023-12-20T13:46:29;5.30;;;2.30;;
16854;SDS011;8543;54.522;18.550;2023-12-20T13:48:55;3.30;;;2.00;;
16854;SDS011;8543;54.522;18.550;2023-12-20T13:51:20;4.30;;;2.20;;
16854;SDS011;8543;54.522;18.550;2023-12-20T13:53:46;3.50;;;2.10;;
16854;SDS011;8543;54.522;18.550;2023-12-20T13:56:13;3.50;;;2.00;;
16854;SDS011;8543;54.522;18.550;2023-12-20T13:58:39;3.80;;;2.20;;
16854;SDS011;8543;54.522;18.550;2023-12-20T14:01:05;4.30;;;2.00;;
16854;SDS011;8543;54.522;18.550;2023-12-20T14:03:31;4.40;;;2.20;;
16854;SDS011;8543;54.522;18.550;2023-12-20T14:05:57;4.10;;;2.20;;
16854;SDS011;8543;54.522;18.550;2023-12-20T14:08:22;7.60;;;2.50;;
16854;SDS011;8543;54.522;18.550;2023-12-20T14:10:48;5.50;;;2.20;;
16854;SDS011;8543;54.522;18.550;2023-12-20T14:13:14;5.60;;;2.20;;
16854;SDS011;8543;54.522;18.550;2023-12-20T14:15:39;4.00;;;1.90;;
16854;SDS011;8543;54.522;18.550;2023-12-20T14:18:04;3.40;;;2.20;;
16854;SDS011;8543;54.522;18.550;2023-12-20T14:20:33;4.90;;;2.10;;
16854;SDS011;8543;54.522;18.550;2023-12-20T14:23:00;5.60;;;2.10;;
16854;SDS011;8543;54.522;18.550;2023-12-20T14:25:26;4.60;;;2.30;;
16854;SDS011;8543;54.522;18.550;2023-12-20T14:27:51;3.80;;;1.90;;
16854;SDS011;8543;54.522;18.550;2023-12-20T14:30:17;3.70;;;2.20;;
16854;SDS011;8543;54.522;18.550;2023-12-20T14:32:42;5.60;;;2.30;;
16854;SDS011;8543;54.522;18.550;2023-12-20T14:35:08;5.60;;;2.40;;
16854;SDS011;8543;54.522;18.550;2023-12-20T14:37:34;3.80;;;2.30;;
16854;SDS011;8543;54.522;18.550;2023-12-20T14:40:00;4.90;;;2.50;;
16854;SDS011;8543;54.522;18.550;2023-12-20T14:42:26;4.70;;;2.40;;
16854;SDS011;8543;54.522;18.550;2023-12-20T14:44:51;5.90;;;2.80;;
16854;SDS011;8543;54.522;18.550;2023-12-20T14:47:17;5.70;;;2.80;;
16854;SDS011;8543;54.522;18.550;2023-12-20T14:49:43;5.80;;;2.50;;
16854;SDS011;8543;54.522;18.550;2023-12-20T14:52:08;5.40;;;2.70;;